sensor_id;sensor_type;location;lat;lon;timestamp;P1;durP1;ratioP1;P2;durP2;ratioP2
57319;SDS011;43158;51.026;18.190;2022-10-29T00:01:05;16.10;;;14.60;;
57319;SDS011;43158;51.026;18.190;2022-10-29T00:03:31;15.60;;;14.10;;
57319;SDS011;43158;51.026;18.190;2022-10-29T00:05:58;16.20;;;14.30;;
57319;SDS011;43158;51.026;18.190;2022-10-29T00:08:25;16.40;;;14.70;;
57319;SDS011;43158;51.026;18.190;2022-10-29T00:10:52;14.60;;;13.10;;
57319;SDS011;43158;51.026;18.190;2022-10-29T00:13:18;15.70;;;14.20;;
57319;SDS011;43158;51.026;18.190;2022-10-29T00:15:44;16.00;;;14.30;;
57319;SDS011;43158;51.026;18.190;2022-10-29T00:18:10;17.20;;;14.90;;
57319;SDS011;43158;51.026;18.190;2022-10-29T00:20:36;16.00;;;14.30;;
57319;SDS011;43158;51.026;18.190;2022-10-29T00:23:02;16.80;;;15.00;;
57319;SDS011;43158;51.026;18.190;2022-10-29T00:25:28;16.00;;;14.40;;
57319;SDS011;43158;51.026;18.190;2022-10-29T00:27:55;17.30;;;14.30;;
57319;SDS011;43158;51.026;18.190;2022-10-29T00:30:21;17.40;;;15.60;;
57319;SDS011;43158;51.026;18.190;2022-10-29T00:32:50;16.40;;;14.90;;
57319;SDS011;43158;51.026;18.190;2022-10-29T00:35:16;14.80;;;13.40;;
57319;SDS011;43158;51.026;18.190;2022-10-29T00:37:45;15.00;;;13.50;;
57319;SDS011;43158;51.026;18.190;2022-10-29T00:40:11;13.90;;;12.50;;
57319;SDS011;43158;51.026;18.190;2022-10-29T00:42:37;15.70;;;14.10;;
57319;SDS011;43158;51.026;18.190;2022-10-29T00:45:04;15.00;;;13.60;;
57319;SDS011;43158;51.026;18.190;2022-10-29T00:47:33;14.10;;;12.70;;
57319;SDS011;43158;51.026;18.190;2022-10-29T00:50:05;16.00;;;14.40;;
57319;SDS011;43158;51.026;18.190;2022-10-29T00:52:37;14.40;;;13.00;;
57319;SDS011;43158;51.026;18.190;2022-10-29T00:55:06;18.30;;;15.50;;
57319;SDS011;43158;51.026;18.190;2022-10-29T00:57:38;18.00;;;16.00;;
57319;SDS011;43158;51.026;18.190;2022-10-29T01:00:09;16.60;;;14.40;;
57319;SDS011;43158;51.026;18.190;2022-10-29T01:02:36;19.70;;;15.30;;
57319;SDS011;43158;51.026;18.190;2022-10-29T01:05:03;24.10;;;17.20;;
57319;SDS011;43158;51.026;18.190;2022-10-29T01:07:30;19.30;;;16.00;;
57319;SDS011;43158;51.026;18.190;2022-10-29T01:09:57;19.70;;;14.20;;
57319;SDS011;43158;51.026;18.190;2022-10-29T01:12:40;19.00;;;15.80;;
57319;SDS011;43158;51.026;18.190;2022-10-29T01:15:23;21.30;;;16.80;;
57319;SDS011;43158;51.026;18.190;2022-10-29T01:26:06;16.40;;;14.80;;
57319;SDS011;43158;51.026;18.190;2022-10-29T01:37:26;20.90;;;14.80;;
57319;SDS011;43158;51.026;18.190;2022-10-29T01:39:54;19.70;;;16.10;;
57319;SDS011;43158;51.026;18.190;2022-10-29T01:42:24;17.70;;;15.10;;
57319;SDS011;43158;51.026;18.190;2022-10-29T01:47:36;17.30;;;15.60;;
57319;SDS011;43158;51.026;18.190;2022-10-29T01:50:06;17.40;;;15.70;;
57319;SDS011;43158;51.026;18.190;2022-10-29T01:52:34;16.60;;;14.70;;
57319;SDS011;43158;51.026;18.190;2022-10-29T01:55:00;15.90;;;14.30;;
57319;SDS011;43158;51.026;18.190;2022-10-29T01:57:28;17.50;;;15.90;;
57319;SDS011;43158;51.026;18.190;2022-10-29T02:00:06;16.30;;;14.60;;
57319;SDS011;43158;51.026;18.190;2022-10-29T02:05:38;15.00;;;13.40;;
57319;SDS011;43158;51.026;18.190;2022-10-29T02:08:30;15.90;;;14.10;;
57319;SDS011;43158;51.026;18.190;2022-10-29T02:11:20;15.50;;;13.90;;
57319;SDS011;43158;51.026;18.190;2022-10-29T02:13:56;15.70;;;14.20;;
57319;SDS011;43158;51.026;18.190;2022-10-29T02:16:30;15.10;;;13.70;;
57319;SDS011;43158;51.026;18.190;2022-10-29T02:18:58;15.70;;;14.20;;
57319;SDS011;43158;51.026;18.190;2022-10-29T02:21:25;14.60;;;13.20;;
57319;SDS011;43158;51.026;18.190;2022-10-29T02:23:51;17.70;;;14.40;;
57319;SDS011;43158;51.026;18.190;2022-10-29T02:26:17;16.30;;;14.70;;
57319;SDS011;43158;51.026;18.190;2022-10-29T02:28:44;15.80;;;14.30;;
57319;SDS011;43158;51.026;18.190;2022-10-29T02:31:10;15.20;;;13.80;;
57319;SDS011;43158;51.026;18.190;2022-10-29T02:33:37;16.30;;;14.70;;
57319;SDS011;43158;51.026;18.190;2022-10-29T02:36:03;15.40;;;13.60;;
57319;SDS011;43158;51.026;18.190;2022-10-29T02:38:30;15.80;;;14.40;;
57319;SDS011;43158;51.026;18.190;2022-10-29T02:40:57;15.70;;;14.30;;
57319;SDS011;43158;51.026;18.190;2022-10-29T02:43:23;16.40;;;14.80;;
57319;SDS011;43158;51.026;18.190;2022-10-29T02:45:49;16.80;;;15.20;;
57319;SDS011;43158;51.026;18.190;2022-10-29T02:48:36;14.20;;;12.80;;
57319;SDS011;43158;51.026;18.190;2022-10-29T02:51:02;16.20;;;14.70;;
57319;SDS011;43158;51.026;18.190;2022-10-29T02:53:28;15.10;;;13.60;;
57319;SDS011;43158;51.026;18.190;2022-10-29T02:55:54;15.70;;;14.10;;
57319;SDS011;43158;51.026;18.190;2022-10-29T02:58:20;17.40;;;14.70;;
57319;SDS011;43158;51.026;18.190;2022-10-29T03:00:50;17.00;;;15.10;;
57319;SDS011;43158;51.026;18.190;2022-10-29T03:03:23;16.60;;;14.90;;
57319;SDS011;43158;51.026;18.190;2022-10-29T03:05:50;15.50;;;14.00;;
57319;SDS011;43158;51.026;18.190;2022-10-29T03:08:17;15.60;;;14.00;;
57319;SDS011;43158;51.026;18.190;2022-10-29T03:10:53;15.40;;;13.70;;
57319;SDS011;43158;51.026;18.190;2022-10-29T03:13:20;14.80;;;13.40;;
57319;SDS011;43158;51.026;18.190;2022-10-29T03:15:46;14.90;;;13.30;;
57319;SDS011;43158;51.026;18.190;2022-10-29T03:18:12;15.00;;;13.40;;
57319;SDS011;43158;51.026;18.190;2022-10-29T03:20:39;14.80;;;13.30;;
57319;SDS011;43158;51.026;18.190;2022-10-29T03:23:05;14.70;;;13.20;;
57319;SDS011;43158;51.026;18.190;2022-10-29T03:25:32;14.70;;;13.20;;
57319;SDS011;43158;51.026;18.190;2022-10-29T03:27:58;16.60;;;12.90;;
57319;SDS011;43158;51.026;18.190;2022-10-29T03:30:24;12.90;;;11.60;;
57319;SDS011;43158;51.026;18.190;2022-10-29T03:32:50;14.70;;;13.20;;
57319;SDS011;43158;51.026;18.190;2022-10-29T03:35:16;14.80;;;13.40;;
57319;SDS011;43158;51.026;18.190;2022-10-29T03:37:47;15.20;;;13.50;;
57319;SDS011;43158;51.026;18.190;2022-10-29T03:40:15;15.90;;;14.40;;
57319;SDS011;43158;51.026;18.190;2022-10-29T03:42:41;16.80;;;14.70;;
57319;SDS011;43158;51.026;18.190;2022-10-29T03:45:08;15.90;;;13.30;;
57319;SDS011;43158;51.026;18.190;2022-10-29T03:47:34;14.60;;;13.20;;
57319;SDS011;43158;51.026;18.190;2022-10-29T03:50:01;16.10;;;13.40;;
57319;SDS011;43158;51.026;18.190;2022-10-29T03:52:27;16.80;;;15.20;;
57319;SDS011;43158;51.026;18.190;2022-10-29T03:54:53;15.00;;;13.40;;
57319;SDS011;43158;51.026;18.190;2022-10-29T03:57:19;15.70;;;13.40;;
57319;SDS011;43158;51.026;18.190;2022-10-29T03:59:45;14.80;;;13.40;;
57319;SDS011;43158;51.026;18.190;2022-10-29T04:02:12;15.60;;;14.00;;
57319;SDS011;43158;51.026;18.190;2022-10-29T04:04:39;17.30;;;15.30;;
57319;SDS011;43158;51.026;18.190;2022-10-29T04:07:05;18.80;;;14.40;;
57319;SDS011;43158;51.026;18.190;2022-10-29T04:09:31;14.30;;;12.90;;
57319;SDS011;43158;51.026;18.190;2022-10-29T04:11:57;18.40;;;14.00;;
57319;SDS011;43158;51.026;18.190;2022-10-29T04:14:23;14.80;;;13.30;;
57319;SDS011;43158;51.026;18.190;2022-10-29T04:16:49;15.30;;;12.80;;
57319;SDS011;43158;51.026;18.190;2022-10-29T04:19:16;15.90;;;12.00;;
57319;SDS011;43158;51.026;18.190;2022-10-29T04:21:42;15.10;;;12.50;;
57319;SDS011;43158;51.026;18.190;2022-10-29T04:24:08;15.30;;;13.70;;
57319;SDS011;43158;51.026;18.190;2022-10-29T04:26:34;16.10;;;12.60;;
57319;SDS011;43158;51.026;18.190;2022-10-29T04:29:00;14.10;;;12.70;;
57319;SDS011;43158;51.026;18.190;2022-10-29T04:31:27;13.40;;;12.00;;
57319;SDS011;43158;51.026;18.190;2022-10-29T04:33:53;12.40;;;11.10;;
57319;SDS011;43158;51.026;18.190;2022-10-29T04:36:19;14.00;;;12.10;;
57319;SDS011;43158;51.026;18.190;2022-10-29T04:38:45;15.40;;;13.70;;
57319;SDS011;43158;51.026;18.190;2022-10-29T04:41:11;16.30;;;12.30;;
57319;SDS011;43158;51.026;18.190;2022-10-29T04:43:37;15.00;;;13.40;;
57319;SDS011;43158;51.026;18.190;2022-10-29T04:46:03;13.30;;;11.70;;
57319;SDS011;43158;51.026;18.190;2022-10-29T04:48:30;15.50;;;13.60;;
57319;SDS011;43158;51.026;18.190;2022-10-29T04:50:56;13.30;;;12.00;;
57319;SDS011;43158;51.026;18.190;2022-10-29T04:53:22;17.90;;;12.70;;
57319;SDS011;43158;51.026;18.190;2022-10-29T04:55:48;14.50;;;13.10;;
57319;SDS011;43158;51.026;18.190;2022-10-29T04:58:15;13.30;;;12.00;;
57319;SDS011;43158;51.026;18.190;2022-10-29T05:00:44;12.70;;;11.30;;
57319;SDS011;43158;51.026;18.190;2022-10-29T05:03:10;13.50;;;12.10;;
57319;SDS011;43158;51.026;18.190;2022-10-29T05:05:38;15.00;;;13.50;;
57319;SDS011;43158;51.026;18.190;2022-10-29T05:08:05;13.90;;;12.10;;
57319;SDS011;43158;51.026;18.190;2022-10-29T05:10:33;14.10;;;12.50;;
57319;SDS011;43158;51.026;18.190;2022-10-29T05:13:02;14.90;;;13.50;;
57319;SDS011;43158;51.026;18.190;2022-10-29T05:15:29;13.50;;;11.60;;
57319;SDS011;43158;51.026;18.190;2022-10-29T05:17:55;13.60;;;12.30;;
57319;SDS011;43158;51.026;18.190;2022-10-29T05:20:22;14.50;;;12.60;;
57319;SDS011;43158;51.026;18.190;2022-10-29T05:22:49;13.60;;;11.50;;
57319;SDS011;43158;51.026;18.190;2022-10-29T05:25:18;14.00;;;11.00;;
57319;SDS011;43158;51.026;18.190;2022-10-29T05:27:44;12.40;;;11.20;;
57319;SDS011;43158;51.026;18.190;2022-10-29T05:30:10;13.60;;;11.20;;
57319;SDS011;43158;51.026;18.190;2022-10-29T05:32:36;11.70;;;10.40;;
57319;SDS011;43158;51.026;18.190;2022-10-29T05:35:03;11.80;;;9.30;;
57319;SDS011;43158;51.026;18.190;2022-10-29T05:37:29;11.90;;;10.80;;
57319;SDS011;43158;51.026;18.190;2022-10-29T05:39:55;13.30;;;10.70;;
57319;SDS011;43158;51.026;18.190;2022-10-29T05:42:21;14.60;;;10.80;;
57319;SDS011;43158;51.026;18.190;2022-10-29T05:44:47;14.50;;;10.50;;
57319;SDS011;43158;51.026;18.190;2022-10-29T05:47:14;13.90;;;11.30;;
57319;SDS011;43158;51.026;18.190;2022-10-29T05:49:41;12.70;;;10.40;;
57319;SDS011;43158;51.026;18.190;2022-10-29T05:52:07;11.50;;;9.80;;
57319;SDS011;43158;51.026;18.190;2022-10-29T05:54:34;12.70;;;11.00;;
57319;SDS011;43158;51.026;18.190;2022-10-29T05:57:00;13.50;;;10.20;;
57319;SDS011;43158;51.026;18.190;2022-10-29T05:59:26;10.80;;;9.80;;
57319;SDS011;43158;51.026;18.190;2022-10-29T06:01:53;11.40;;;10.30;;
57319;SDS011;43158;51.026;18.190;2022-10-29T06:04:19;12.30;;;10.50;;
57319;SDS011;43158;51.026;18.190;2022-10-29T06:06:49;12.40;;;11.10;;
57319;SDS011;43158;51.026;18.190;2022-10-29T06:09:15;17.30;;;10.30;;
57319;SDS011;43158;51.026;18.190;2022-10-29T06:11:42;15.40;;;10.80;;
57319;SDS011;43158;51.026;18.190;2022-10-29T06:14:09;11.30;;;9.70;;
57319;SDS011;43158;51.026;18.190;2022-10-29T06:16:35;11.90;;;10.70;;
57319;SDS011;43158;51.026;18.190;2022-10-29T06:19:03;13.60;;;8.90;;
57319;SDS011;43158;51.026;18.190;2022-10-29T06:21:29;11.00;;;9.80;;
57319;SDS011;43158;51.026;18.190;2022-10-29T06:23:55;9.90;;;9.00;;
57319;SDS011;43158;51.026;18.190;2022-10-29T06:26:21;11.80;;;9.90;;
57319;SDS011;43158;51.026;18.190;2022-10-29T06:28:48;14.40;;;11.20;;
57319;SDS011;43158;51.026;18.190;2022-10-29T06:31:14;12.70;;;11.40;;
57319;SDS011;43158;51.026;18.190;2022-10-29T06:33:40;13.30;;;10.80;;
57319;SDS011;43158;51.026;18.190;2022-10-29T06:36:07;11.90;;;10.50;;
57319;SDS011;43158;51.026;18.190;2022-10-29T06:38:33;11.50;;;10.30;;
57319;SDS011;43158;51.026;18.190;2022-10-29T06:41:00;15.70;;;10.20;;
57319;SDS011;43158;51.026;18.190;2022-10-29T06:43:27;10.80;;;9.70;;
57319;SDS011;43158;51.026;18.190;2022-10-29T06:45:53;11.60;;;10.40;;
57319;SDS011;43158;51.026;18.190;2022-10-29T06:48:20;10.60;;;9.40;;
57319;SDS011;43158;51.026;18.190;2022-10-29T06:50:47;10.90;;;9.60;;
57319;SDS011;43158;51.026;18.190;2022-10-29T06:53:13;10.80;;;9.70;;
57319;SDS011;43158;51.026;18.190;2022-10-29T06:55:40;11.40;;;9.10;;
57319;SDS011;43158;51.026;18.190;2022-10-29T06:58:11;12.40;;;10.00;;
57319;SDS011;43158;51.026;18.190;2022-10-29T07:00:38;11.40;;;9.30;;
57319;SDS011;43158;51.026;18.190;2022-10-29T07:03:06;12.20;;;11.00;;
57319;SDS011;43158;51.026;18.190;2022-10-29T07:05:33;13.30;;;10.00;;
57319;SDS011;43158;51.026;18.190;2022-10-29T07:08:01;14.40;;;10.20;;
57319;SDS011;43158;51.026;18.190;2022-10-29T07:10:28;12.70;;;9.90;;
57319;SDS011;43158;51.026;18.190;2022-10-29T07:12:55;15.80;;;10.00;;
57319;SDS011;43158;51.026;18.190;2022-10-29T07:15:22;14.10;;;9.60;;
57319;SDS011;43158;51.026;18.190;2022-10-29T07:17:58;11.20;;;9.50;;
57319;SDS011;43158;51.026;18.190;2022-10-29T07:20:29;12.30;;;8.60;;
57319;SDS011;43158;51.026;18.190;2022-10-29T07:22:57;13.70;;;9.60;;
57319;SDS011;43158;51.026;18.190;2022-10-29T07:25:24;14.60;;;8.10;;
57319;SDS011;43158;51.026;18.190;2022-10-29T07:27:51;10.70;;;7.80;;
57319;SDS011;43158;51.026;18.190;2022-10-29T07:30:17;14.00;;;9.30;;
57319;SDS011;43158;51.026;18.190;2022-10-29T07:32:43;9.20;;;6.70;;
57319;SDS011;43158;51.026;18.190;2022-10-29T07:35:10;10.30;;;6.90;;
57319;SDS011;43158;51.026;18.190;2022-10-29T07:37:36;8.20;;;6.50;;
57319;SDS011;43158;51.026;18.190;2022-10-29T07:40:04;11.50;;;6.10;;
57319;SDS011;43158;51.026;18.190;2022-10-29T07:42:31;12.20;;;7.20;;
57319;SDS011;43158;51.026;18.190;2022-10-29T07:44:58;8.30;;;6.20;;
57319;SDS011;43158;51.026;18.190;2022-10-29T07:47:24;14.70;;;5.70;;
57319;SDS011;43158;51.026;18.190;2022-10-29T07:49:50;9.20;;;4.80;;
57319;SDS011;43158;51.026;18.190;2022-10-29T07:52:16;9.10;;;5.40;;
57319;SDS011;43158;51.026;18.190;2022-10-29T07:54:43;7.20;;;5.30;;
57319;SDS011;43158;51.026;18.190;2022-10-29T07:57:09;7.70;;;5.40;;
57319;SDS011;43158;51.026;18.190;2022-10-29T07:59:36;8.00;;;5.30;;
57319;SDS011;43158;51.026;18.190;2022-10-29T08:02:02;7.30;;;6.20;;
57319;SDS011;43158;51.026;18.190;2022-10-29T08:04:29;10.60;;;5.80;;
57319;SDS011;43158;51.026;18.190;2022-10-29T08:06:55;7.40;;;5.00;;
57319;SDS011;43158;51.026;18.190;2022-10-29T08:09:21;9.60;;;5.00;;
57319;SDS011;43158;51.026;18.190;2022-10-29T08:11:47;8.20;;;5.80;;
57319;SDS011;43158;51.026;18.190;2022-10-29T08:14:14;8.20;;;5.10;;
57319;SDS011;43158;51.026;18.190;2022-10-29T08:16:40;9.50;;;5.90;;
57319;SDS011;43158;51.026;18.190;2022-10-29T08:19:07;8.20;;;5.60;;
57319;SDS011;43158;51.026;18.190;2022-10-29T08:21:34;11.70;;;5.80;;
57319;SDS011;43158;51.026;18.190;2022-10-29T08:24:00;10.30;;;5.10;;
57319;SDS011;43158;51.026;18.190;2022-10-29T08:26:26;8.80;;;4.80;;
57319;SDS011;43158;51.026;18.190;2022-10-29T08:28:53;9.00;;;6.80;;
57319;SDS011;43158;51.026;18.190;2022-10-29T08:31:19;11.10;;;6.00;;
57319;SDS011;43158;51.026;18.190;2022-10-29T08:33:46;7.80;;;5.10;;
57319;SDS011;43158;51.026;18.190;2022-10-29T08:36:13;10.70;;;5.10;;
57319;SDS011;43158;51.026;18.190;2022-10-29T08:38:40;6.80;;;4.90;;
57319;SDS011;43158;51.026;18.190;2022-10-29T08:44:11;10.70;;;5.70;;
57319;SDS011;43158;51.026;18.190;2022-10-29T08:49:38;10.20;;;6.10;;
57319;SDS011;43158;51.026;18.190;2022-10-29T08:52:09;10.40;;;6.70;;
57319;SDS011;43158;51.026;18.190;2022-10-29T08:54:39;9.50;;;5.40;;
57319;SDS011;43158;51.026;18.190;2022-10-29T08:57:16;12.20;;;5.70;;
57319;SDS011;43158;51.026;18.190;2022-10-29T08:59:51;8.80;;;5.00;;
57319;SDS011;43158;51.026;18.190;2022-10-29T09:02:23;7.90;;;6.10;;
57319;SDS011;43158;51.026;18.190;2022-10-29T09:04:50;12.80;;;5.80;;
57319;SDS011;43158;51.026;18.190;2022-10-29T09:07:27;10.50;;;5.90;;
57319;SDS011;43158;51.026;18.190;2022-10-29T09:10:09;8.30;;;5.00;;
57319;SDS011;43158;51.026;18.190;2022-10-29T09:27:23;11.60;;;6.60;;
57319;SDS011;43158;51.026;18.190;2022-10-29T09:30:15;11.00;;;5.80;;
57319;SDS011;43158;51.026;18.190;2022-10-29T09:32:54;13.20;;;6.30;;
57319;SDS011;43158;51.026;18.190;2022-10-29T09:35:43;9.70;;;5.50;;
57319;SDS011;43158;51.026;18.190;2022-10-29T09:40:42;13.20;;;6.40;;
57319;SDS011;43158;51.026;18.190;2022-10-29T09:48:31;8.90;;;6.20;;
57319;SDS011;43158;51.026;18.190;2022-10-29T09:51:17;7.90;;;6.50;;
57319;SDS011;43158;51.026;18.190;2022-10-29T09:53:49;12.60;;;5.50;;
57319;SDS011;43158;51.026;18.190;2022-10-29T09:56:15;14.10;;;5.70;;
57319;SDS011;43158;51.026;18.190;2022-10-29T09:58:43;11.30;;;6.40;;
57319;SDS011;43158;51.026;18.190;2022-10-29T10:01:11;11.50;;;5.70;;
57319;SDS011;43158;51.026;18.190;2022-10-29T10:03:44;10.70;;;6.00;;
57319;SDS011;43158;51.026;18.190;2022-10-29T10:06:14;15.70;;;5.10;;
57319;SDS011;43158;51.026;18.190;2022-10-29T10:09:14;12.60;;;7.00;;
57319;SDS011;43158;51.026;18.190;2022-10-29T10:11:37;12.00;;;6.10;;
57319;SDS011;43158;51.026;18.190;2022-10-29T10:14:23;10.20;;;5.00;;
57319;SDS011;43158;51.026;18.190;2022-10-29T10:16:56;14.70;;;5.40;;
57319;SDS011;43158;51.026;18.190;2022-10-29T10:19:26;7.40;;;5.70;;
57319;SDS011;43158;51.026;18.190;2022-10-29T10:21:55;10.80;;;5.50;;
57319;SDS011;43158;51.026;18.190;2022-10-29T10:24:35;8.80;;;5.00;;
57319;SDS011;43158;51.026;18.190;2022-10-29T10:32:30;8.20;;;4.90;;
57319;SDS011;43158;51.026;18.190;2022-10-29T10:34:57;11.30;;;5.30;;
57319;SDS011;43158;51.026;18.190;2022-10-29T10:37:23;9.80;;;5.10;;
57319;SDS011;43158;51.026;18.190;2022-10-29T10:39:55;8.10;;;4.90;;
57319;SDS011;43158;51.026;18.190;2022-10-29T10:42:28;10.10;;;5.00;;
57319;SDS011;43158;51.026;18.190;2022-10-29T10:44:57;13.50;;;5.20;;
57319;SDS011;43158;51.026;18.190;2022-10-29T10:47:31;12.00;;;5.00;;
57319;SDS011;43158;51.026;18.190;2022-10-29T10:50:14;8.60;;;3.90;;
57319;SDS011;43158;51.026;18.190;2022-10-29T10:52:44;7.30;;;4.10;;
57319;SDS011;43158;51.026;18.190;2022-10-29T10:55:19;7.00;;;4.50;;
57319;SDS011;43158;51.026;18.190;2022-10-29T10:57:51;8.10;;;4.10;;
57319;SDS011;43158;51.026;18.190;2022-10-29T11:00:21;10.90;;;4.30;;
57319;SDS011;43158;51.026;18.190;2022-10-29T11:02:49;6.60;;;3.80;;
57319;SDS011;43158;51.026;18.190;2022-10-29T11:05:22;8.80;;;4.10;;
57319;SDS011;43158;51.026;18.190;2022-10-29T11:07:53;6.90;;;4.00;;
57319;SDS011;43158;51.026;18.190;2022-10-29T11:10:59;9.40;;;4.70;;
57319;SDS011;43158;51.026;18.190;2022-10-29T11:13:32;8.30;;;3.70;;
57319;SDS011;43158;51.026;18.190;2022-10-29T11:18:51;6.50;;;3.60;;
57319;SDS011;43158;51.026;18.190;2022-10-29T11:21:25;7.80;;;3.60;;
57319;SDS011;43158;51.026;18.190;2022-10-29T11:24:05;5.30;;;3.20;;
57319;SDS011;43158;51.026;18.190;2022-10-29T11:27:02;7.60;;;4.10;;
57319;SDS011;43158;51.026;18.190;2022-10-29T11:29:42;7.90;;;4.40;;
57319;SDS011;43158;51.026;18.190;2022-10-29T11:37:46;7.10;;;3.40;;
57319;SDS011;43158;51.026;18.190;2022-10-29T11:40:21;10.20;;;4.20;;
57319;SDS011;43158;51.026;18.190;2022-10-29T11:42:50;8.20;;;3.50;;
57319;SDS011;43158;51.026;18.190;2022-10-29T11:45:19;7.10;;;3.60;;
57319;SDS011;43158;51.026;18.190;2022-10-29T11:51:15;8.50;;;4.10;;
57319;SDS011;43158;51.026;18.190;2022-10-29T11:54:33;8.90;;;4.00;;
57319;SDS011;43158;51.026;18.190;2022-10-29T11:57:35;8.60;;;4.20;;
57319;SDS011;43158;51.026;18.190;2022-10-29T12:00:16;7.10;;;4.00;;
57319;SDS011;43158;51.026;18.190;2022-10-29T12:11:44;7.40;;;3.90;;
57319;SDS011;43158;51.026;18.190;2022-10-29T12:14:24;7.00;;;3.80;;
57319;SDS011;43158;51.026;18.190;2022-10-29T12:17:03;7.10;;;3.90;;
57319;SDS011;43158;51.026;18.190;2022-10-29T12:19:36;5.60;;;3.60;;
57319;SDS011;43158;51.026;18.190;2022-10-29T12:30:04;6.60;;;3.30;;
57319;SDS011;43158;51.026;18.190;2022-10-29T12:32:35;6.10;;;3.60;;
57319;SDS011;43158;51.026;18.190;2022-10-29T12:35:21;8.10;;;3.20;;
57319;SDS011;43158;51.026;18.190;2022-10-29T12:38:04;9.90;;;3.50;;
57319;SDS011;43158;51.026;18.190;2022-10-29T12:40:43;8.80;;;4.80;;
57319;SDS011;43158;51.026;18.190;2022-10-29T12:43:21;4.10;;;3.30;;
57319;SDS011;43158;51.026;18.190;2022-10-29T12:45:57;5.90;;;3.50;;
57319;SDS011;43158;51.026;18.190;2022-10-29T12:48:47;6.80;;;3.00;;
57319;SDS011;43158;51.026;18.190;2022-10-29T12:54:25;11.00;;;3.30;;
57319;SDS011;43158;51.026;18.190;2022-10-29T12:57:31;9.30;;;4.10;;
57319;SDS011;43158;51.026;18.190;2022-10-29T12:59:56;8.30;;;2.80;;
57319;SDS011;43158;51.026;18.190;2022-10-29T13:02:24;8.00;;;3.50;;
57319;SDS011;43158;51.026;18.190;2022-10-29T13:07:35;6.70;;;3.40;;
57319;SDS011;43158;51.026;18.190;2022-10-29T13:18:24;12.00;;;3.10;;
57319;SDS011;43158;51.026;18.190;2022-10-29T13:20:52;7.60;;;3.10;;
57319;SDS011;43158;51.026;18.190;2022-10-29T13:30:52;8.60;;;3.90;;
57319;SDS011;43158;51.026;18.190;2022-10-29T13:36:34;6.40;;;3.10;;
57319;SDS011;43158;51.026;18.190;2022-10-29T13:41:23;5.60;;;3.10;;
57319;SDS011;43158;51.026;18.190;2022-10-29T13:44:09;8.40;;;3.00;;
57319;SDS011;43158;51.026;18.190;2022-10-29T13:54:23;7.60;;;4.30;;
57319;SDS011;43158;51.026;18.190;2022-10-29T13:56:53;9.80;;;3.70;;
57319;SDS011;43158;51.026;18.190;2022-10-29T13:59:33;10.40;;;3.50;;
57319;SDS011;43158;51.026;18.190;2022-10-29T14:04:53;8.30;;;3.60;;
57319;SDS011;43158;51.026;18.190;2022-10-29T14:07:23;8.20;;;2.80;;
57319;SDS011;43158;51.026;18.190;2022-10-29T14:09:55;6.10;;;3.90;;
57319;SDS011;43158;51.026;18.190;2022-10-29T14:12:26;5.40;;;3.00;;
57319;SDS011;43158;51.026;18.190;2022-10-29T14:14:57;9.00;;;3.70;;
57319;SDS011;43158;51.026;18.190;2022-10-29T14:17:26;8.00;;;3.80;;
57319;SDS011;43158;51.026;18.190;2022-10-29T14:19:53;7.80;;;3.00;;
57319;SDS011;43158;51.026;18.190;2022-10-29T14:24:59;4.50;;;3.30;;
57319;SDS011;43158;51.026;18.190;2022-10-29T14:27:26;7.50;;;3.60;;
57319;SDS011;43158;51.026;18.190;2022-10-29T14:30:09;8.10;;;3.60;;
57319;SDS011;43158;51.026;18.190;2022-10-29T14:32:37;6.70;;;3.30;;
57319;SDS011;43158;51.026;18.190;2022-10-29T14:35:05;6.80;;;3.60;;
57319;SDS011;43158;51.026;18.190;2022-10-29T14:37:32;4.10;;;2.90;;
57319;SDS011;43158;51.026;18.190;2022-10-29T14:40:04;6.70;;;3.50;;
57319;SDS011;43158;51.026;18.190;2022-10-29T14:42:33;6.70;;;3.60;;
57319;SDS011;43158;51.026;18.190;2022-10-29T14:45:02;7.60;;;3.50;;
57319;SDS011;43158;51.026;18.190;2022-10-29T14:47:33;6.80;;;3.60;;
57319;SDS011;43158;51.026;18.190;2022-10-29T14:50:05;5.90;;;3.90;;
57319;SDS011;43158;51.026;18.190;2022-10-29T14:52:50;6.90;;;3.40;;
57319;SDS011;43158;51.026;18.190;2022-10-29T14:55:22;5.70;;;3.70;;
57319;SDS011;43158;51.026;18.190;2022-10-29T14:57:53;6.10;;;4.30;;
57319;SDS011;43158;51.026;18.190;2022-10-29T15:00:31;5.50;;;3.90;;
57319;SDS011;43158;51.026;18.190;2022-10-29T15:03:01;8.80;;;4.40;;
57319;SDS011;43158;51.026;18.190;2022-10-29T15:05:31;7.50;;;4.00;;
57319;SDS011;43158;51.026;18.190;2022-10-29T15:08:10;8.00;;;3.80;;
57319;SDS011;43158;51.026;18.190;2022-10-29T15:10:49;5.90;;;4.30;;
57319;SDS011;43158;51.026;18.190;2022-10-29T15:18:32;9.60;;;5.00;;
57319;SDS011;43158;51.026;18.190;2022-10-29T15:20:59;9.70;;;4.70;;
57319;SDS011;43158;51.026;18.190;2022-10-29T15:23:28;10.30;;;5.20;;
57319;SDS011;43158;51.026;18.190;2022-10-29T15:26:00;6.60;;;4.20;;
57319;SDS011;43158;51.026;18.190;2022-10-29T15:28:42;14.20;;;5.30;;
57319;SDS011;43158;51.026;18.190;2022-10-29T15:31:18;8.60;;;5.30;;
57319;SDS011;43158;51.026;18.190;2022-10-29T15:33:48;12.60;;;5.90;;
57319;SDS011;43158;51.026;18.190;2022-10-29T15:36:16;10.20;;;5.50;;
57319;SDS011;43158;51.026;18.190;2022-10-29T15:43:48;11.30;;;5.70;;
57319;SDS011;43158;51.026;18.190;2022-10-29T15:46:20;8.00;;;5.90;;
57319;SDS011;43158;51.026;18.190;2022-10-29T15:48:47;7.10;;;5.60;;
57319;SDS011;43158;51.026;18.190;2022-10-29T15:51:14;8.60;;;4.40;;
57319;SDS011;43158;51.026;18.190;2022-10-29T15:53:41;8.00;;;5.00;;
57319;SDS011;43158;51.026;18.190;2022-10-29T15:56:11;6.70;;;5.90;;
57319;SDS011;43158;51.026;18.190;2022-10-29T15:58:38;7.90;;;6.60;;
57319;SDS011;43158;51.026;18.190;2022-10-29T16:01:05;12.60;;;7.50;;
57319;SDS011;43158;51.026;18.190;2022-10-29T16:03:34;10.80;;;8.40;;
57319;SDS011;43158;51.026;18.190;2022-10-29T16:06:04;9.80;;;7.20;;
57319;SDS011;43158;51.026;18.190;2022-10-29T16:08:33;12.90;;;8.10;;
57319;SDS011;43158;51.026;18.190;2022-10-29T16:11:11;13.80;;;10.20;;
57319;SDS011;43158;51.026;18.190;2022-10-29T16:13:44;16.30;;;11.60;;
57319;SDS011;43158;51.026;18.190;2022-10-29T16:16:11;13.50;;;10.90;;
57319;SDS011;43158;51.026;18.190;2022-10-29T16:18:40;14.50;;;11.40;;
57319;SDS011;43158;51.026;18.190;2022-10-29T16:21:07;12.30;;;11.00;;
57319;SDS011;43158;51.026;18.190;2022-10-29T16:23:35;14.40;;;11.10;;
57319;SDS011;43158;51.026;18.190;2022-10-29T16:26:09;20.60;;;14.60;;
57319;SDS011;43158;51.026;18.190;2022-10-29T16:28:50;18.50;;;16.20;;
57319;SDS011;43158;51.026;18.190;2022-10-29T16:31:19;27.50;;;19.60;;
57319;SDS011;43158;51.026;18.190;2022-10-29T16:33:53;28.20;;;20.80;;
57319;SDS011;43158;51.026;18.190;2022-10-29T16:36:24;32.60;;;22.60;;
57319;SDS011;43158;51.026;18.190;2022-10-29T16:38:56;26.10;;;19.20;;
57319;SDS011;43158;51.026;18.190;2022-10-29T16:41:22;26.80;;;20.50;;
57319;SDS011;43158;51.026;18.190;2022-10-29T16:44:07;24.80;;;20.70;;
57319;SDS011;43158;51.026;18.190;2022-10-29T16:46:43;26.60;;;21.40;;
57319;SDS011;43158;51.026;18.190;2022-10-29T16:49:10;26.20;;;21.80;;
57319;SDS011;43158;51.026;18.190;2022-10-29T16:51:36;28.60;;;22.30;;